sensor_id;sensor_type;location;lat;lon;timestamp;P1;durP1;ratioP1;P2;durP2;ratioP2
63018;SDS011;49105;46.046;10.760;2024-03-23T00:54:17;3.15;;;3.05;;
63018;SDS011;49105;46.046;10.760;2024-03-23T00:56:43;2.75;;;2.70;;
63018;SDS011;49105;46.046;10.760;2024-03-23T00:59:09;3.10;;;3.00;;
63018;SDS011;49105;46.046;10.760;2024-03-23T01:01:35;2.95;;;2.85;;
63018;SDS011;49105;46.046;10.760;2024-03-23T01:04:01;2.90;;;2.80;;
63018;SDS011;49105;46.046;10.760;2024-03-23T01:06:27;4.85;;;3.17;;
63018;SDS011;49105;46.046;10.760;2024-03-23T01:08:53;3.05;;;2.95;;
63018;SDS011;49105;46.046;10.760;2024-03-23T01:11:19;3.35;;;3.25;;
63018;SDS011;49105;46.046;10.760;2024-03-23T01:13:45;3.20;;;3.00;;
63018;SDS011;49105;46.046;10.760;2024-03-23T01:16:12;3.97;;;3.67;;
63018;SDS011;49105;46.046;10.760;2024-03-23T01:18:37;2.92;;;2.83;;
63018;SDS011;49105;46.046;10.760;2024-03-23T01:21:03;3.10;;;3.00;;
63018;SDS011;49105;46.046;10.760;2024-03-23T01:23:30;3.45;;;3.30;;
63018;SDS011;49105;46.046;10.760;2024-03-23T01:25:56;3.30;;;3.20;;
63018;SDS011;49105;46.046;10.760;2024-03-23T01:28:21;3.63;;;3.53;;
63018;SDS011;49105;46.046;10.760;2024-03-23T01:30:47;3.05;;;2.95;;
63018;SDS011;49105;46.046;10.760;2024-03-23T01:33:13;3.78;;;3.58;;
63018;SDS011;49105;46.046;10.760;2024-03-23T01:35:39;2.90;;;2.80;;
63018;SDS011;49105;46.046;10.760;2024-03-23T01:38:05;3.97;;;3.55;;
63018;SDS011;49105;46.046;10.760;2024-03-23T01:40:31;2.90;;;2.80;;
63018;SDS011;49105;46.046;10.760;2024-03-23T01:43:04;3.05;;;2.95;;
63018;SDS011;49105;46.046;10.760;2024-03-23T01:45:32;3.63;;;3.38;;
63018;SDS011;49105;46.046;10.760;2024-03-23T01:47:59;2.90;;;2.80;;
63018;SDS011;49105;46.046;10.760;2024-03-23T01:50:25;3.00;;;2.83;;
63018;SDS011;49105;46.046;10.760;2024-03-23T01:52:53;2.67;;;2.60;;
63018;SDS011;49105;46.046;10.760;2024-03-23T01:55:19;2.90;;;2.80;;
63018;SDS011;49105;46.046;10.760;2024-03-23T01:57:45;2.97;;;2.88;;
63018;SDS011;49105;46.046;10.760;2024-03-23T02:00:11;2.40;;;2.40;;
63018;SDS011;49105;46.046;10.760;2024-03-23T02:05:10;3.38;;;3.28;;
63018;SDS011;49105;46.046;10.760;2024-03-23T02:07:37;2.60;;;2.55;;
63018;SDS011;49105;46.046;10.760;2024-03-23T02:10:04;3.45;;;3.25;;
63018;SDS011;49105;46.046;10.760;2024-03-23T02:12:31;2.90;;;2.80;;
63018;SDS011;49105;46.046;10.760;2024-03-23T02:14:57;4.03;;;3.75;;
63018;SDS011;49105;46.046;10.760;2024-03-23T02:17:23;3.28;;;3.17;;
63018;SDS011;49105;46.046;10.760;2024-03-23T02:19:50;3.05;;;2.95;;
63018;SDS011;49105;46.046;10.760;2024-03-23T02:22:16;3.22;;;3.13;;
63018;SDS011;49105;46.046;10.760;2024-03-23T02:24:41;3.33;;;3.22;;
63018;SDS011;49105;46.046;10.760;2024-03-23T02:27:07;3.15;;;3.05;;
63018;SDS011;49105;46.046;10.760;2024-03-23T02:29:34;3.35;;;3.25;;
63018;SDS011;49105;46.046;10.760;2024-03-23T02:31:59;3.13;;;3.03;;
63018;SDS011;49105;46.046;10.760;2024-03-23T02:34:26;3.03;;;2.92;;
63018;SDS011;49105;46.046;10.760;2024-03-23T02:36:52;3.38;;;3.28;;
63018;SDS011;49105;46.046;10.760;2024-03-23T02:39:18;3.22;;;3.13;;
63018;SDS011;49105;46.046;10.760;2024-03-23T02:41:44;3.20;;;3.10;;
63018;SDS011;49105;46.046;10.760;2024-03-23T02:44:09;2.80;;;2.70;;
63018;SDS011;49105;46.046;10.760;2024-03-23T02:46:37;3.60;;;3.47;;
63018;SDS011;49105;46.046;10.760;2024-03-23T02:49:03;3.65;;;3.45;;
63018;SDS011;49105;46.046;10.760;2024-03-23T02:51:29;3.00;;;2.80;;
63018;SDS011;49105;46.046;10.760;2024-03-23T02:53:55;3.15;;;3.05;;
63018;SDS011;49105;46.046;10.760;2024-03-23T02:56:21;2.75;;;2.53;;
63018;SDS011;49105;46.046;10.760;2024-03-23T02:58:47;3.10;;;3.00;;
63018;SDS011;49105;46.046;10.760;2024-03-23T03:01:12;2.90;;;2.80;;
63018;SDS011;49105;46.046;10.760;2024-03-23T03:03:38;3.42;;;2.83;;
63018;SDS011;49105;46.046;10.760;2024-03-23T03:06:04;2.90;;;2.80;;
63018;SDS011;49105;46.046;10.760;2024-03-23T03:08:30;2.80;;;2.70;;
63018;SDS011;49105;46.046;10.760;2024-03-23T03:10:55;3.10;;;3.00;;
63018;SDS011;49105;46.046;10.760;2024-03-23T03:13:21;3.20;;;3.10;;
63018;SDS011;49105;46.046;10.760;2024-03-23T03:15:46;2.70;;;2.60;;
63018;SDS011;49105;46.046;10.760;2024-03-23T03:18:12;2.90;;;2.80;;
63018;SDS011;49105;46.046;10.760;2024-03-23T03:20:39;2.40;;;2.40;;
63018;SDS011;49105;46.046;10.760;2024-03-23T03:23:05;3.10;;;3.00;;
63018;SDS011;49105;46.046;10.760;2024-03-23T03:25:31;3.20;;;3.10;;
63018;SDS011;49105;46.046;10.760;2024-03-23T03:27:58;3.53;;;3.42;;
63018;SDS011;49105;46.046;10.760;2024-03-23T03:30:23;2.80;;;2.70;;
63018;SDS011;49105;46.046;10.760;2024-03-23T03:32:49;2.88;;;2.70;;
63018;SDS011;49105;46.046;10.760;2024-03-23T03:35:16;2.85;;;2.75;;
63018;SDS011;49105;46.046;10.760;2024-03-23T03:37:42;2.92;;;2.83;;
63018;SDS011;49105;46.046;10.760;2024-03-23T03:40:08;3.85;;;3.50;;
63018;SDS011;49105;46.046;10.760;2024-03-23T03:42:34;3.33;;;3.22;;
63018;SDS011;49105;46.046;10.760;2024-03-23T03:45:00;2.80;;;2.70;;
63018;SDS011;49105;46.046;10.760;2024-03-23T03:47:26;4.03;;;3.83;;
63018;SDS011;49105;46.046;10.760;2024-03-23T03:49:52;2.85;;;2.75;;
63018;SDS011;49105;46.046;10.760;2024-03-23T03:52:18;2.60;;;2.60;;
63018;SDS011;49105;46.046;10.760;2024-03-23T03:54:44;2.70;;;2.53;;
63018;SDS011;49105;46.046;10.760;2024-03-23T03:57:10;3.45;;;3.25;;
63018;SDS011;49105;46.046;10.760;2024-03-23T03:59:36;2.70;;;2.67;;
63018;SDS011;49105;46.046;10.760;2024-03-23T04:02:03;2.92;;;2.83;;
63018;SDS011;49105;46.046;10.760;2024-03-23T04:04:29;2.80;;;2.70;;
63018;SDS011;49105;46.046;10.760;2024-03-23T04:06:58;3.05;;;2.95;;
63018;SDS011;49105;46.046;10.760;2024-03-23T04:09:25;3.40;;;3.30;;
63018;SDS011;49105;46.046;10.760;2024-03-23T04:11:50;3.38;;;3.28;;
63018;SDS011;49105;46.046;10.760;2024-03-23T04:14:16;2.75;;;2.70;;
63018;SDS011;49105;46.046;10.760;2024-03-23T04:16:42;3.03;;;2.92;;
63018;SDS011;49105;46.046;10.760;2024-03-23T04:19:08;2.60;;;2.60;;
63018;SDS011;49105;46.046;10.760;2024-03-23T04:21:35;3.47;;;3.28;;
63018;SDS011;49105;46.046;10.760;2024-03-23T04:24:02;2.83;;;2.72;;
63018;SDS011;49105;46.046;10.760;2024-03-23T04:26:28;3.83;;;3.63;;
63018;SDS011;49105;46.046;10.760;2024-03-23T04:28:54;3.25;;;3.15;;
63018;SDS011;49105;46.046;10.760;2024-03-23T04:31:19;2.72;;;2.67;;
63018;SDS011;49105;46.046;10.760;2024-03-23T04:33:45;2.70;;;2.63;;
63018;SDS011;49105;46.046;10.760;2024-03-23T04:36:11;2.50;;;2.50;;
63018;SDS011;49105;46.046;10.760;2024-03-23T04:38:36;2.65;;;2.65;;
63018;SDS011;49105;46.046;10.760;2024-03-23T04:41:02;2.83;;;2.72;;
63018;SDS011;49105;46.046;10.760;2024-03-23T04:43:28;3.10;;;3.00;;
63018;SDS011;49105;46.046;10.760;2024-03-23T04:45:54;3.30;;;3.08;;
63018;SDS011;49105;46.046;10.760;2024-03-23T04:48:21;2.83;;;2.72;;
63018;SDS011;49105;46.046;10.760;2024-03-23T04:50:54;3.22;;;3.03;;
63018;SDS011;49105;46.046;10.760;2024-03-23T04:53:21;4.87;;;4.60;;
63018;SDS011;49105;46.046;10.760;2024-03-23T04:55:46;3.88;;;3.70;;
63018;SDS011;49105;46.046;10.760;2024-03-23T04:58:12;4.25;;;4.05;;
63018;SDS011;49105;46.046;10.760;2024-03-23T05:00:38;2.47;;;2.45;;
63018;SDS011;49105;46.046;10.760;2024-03-23T05:03:04;2.08;;;2.08;;
63018;SDS011;49105;46.046;10.760;2024-03-23T05:05:29;2.50;;;2.40;;
63018;SDS011;49105;46.046;10.760;2024-03-23T05:07:56;2.33;;;2.28;;
63018;SDS011;49105;46.046;10.760;2024-03-23T05:10:22;2.75;;;2.65;;
63018;SDS011;49105;46.046;10.760;2024-03-23T05:12:47;2.50;;;2.50;;
63018;SDS011;49105;46.046;10.760;2024-03-23T05:15:13;2.60;;;2.55;;
63018;SDS011;49105;46.046;10.760;2024-03-23T05:17:39;2.80;;;2.70;;
63018;SDS011;49105;46.046;10.760;2024-03-23T05:20:06;3.45;;;3.35;;
63018;SDS011;49105;46.046;10.760;2024-03-23T05:22:35;2.60;;;2.50;;
63018;SDS011;49105;46.046;10.760;2024-03-23T05:25:01;2.22;;;2.20;;
63018;SDS011;49105;46.046;10.760;2024-03-23T05:27:29;2.60;;;2.50;;
63018;SDS011;49105;46.046;10.760;2024-03-23T05:29:55;3.28;;;3.17;;
63018;SDS011;49105;46.046;10.760;2024-03-23T05:32:21;2.30;;;2.30;;
63018;SDS011;49105;46.046;10.760;2024-03-23T05:34:48;2.45;;;2.45;;
63018;SDS011;49105;46.046;10.760;2024-03-23T05:37:15;2.63;;;2.63;;
63018;SDS011;49105;46.046;10.760;2024-03-23T05:39:41;2.90;;;2.80;;
63018;SDS011;49105;46.046;10.760;2024-03-23T05:42:06;3.05;;;2.95;;
63018;SDS011;49105;46.046;10.760;2024-03-23T05:44:33;2.22;;;2.22;;
63018;SDS011;49105;46.046;10.760;2024-03-23T05:46:59;2.50;;;2.40;;
63018;SDS011;49105;46.046;10.760;2024-03-23T05:49:25;2.45;;;2.42;;
63018;SDS011;49105;46.046;10.760;2024-03-23T05:51:51;3.08;;;2.97;;
63018;SDS011;49105;46.046;10.760;2024-03-23T05:54:17;3.65;;;3.35;;
63018;SDS011;49105;46.046;10.760;2024-03-23T05:56:43;2.72;;;2.65;;
63018;SDS011;49105;46.046;10.760;2024-03-23T05:59:09;3.30;;;3.20;;
63018;SDS011;49105;46.046;10.760;2024-03-23T06:01:34;3.13;;;3.03;;
63018;SDS011;49105;46.046;10.760;2024-03-23T06:04:01;2.40;;;2.30;;
63018;SDS011;49105;46.046;10.760;2024-03-23T06:06:26;2.40;;;2.40;;
63018;SDS011;49105;46.046;10.760;2024-03-23T06:08:52;2.40;;;2.30;;
63018;SDS011;49105;46.046;10.760;2024-03-23T06:11:17;2.90;;;2.70;;
63018;SDS011;49105;46.046;10.760;2024-03-23T06:13:43;2.92;;;2.83;;
63018;SDS011;49105;46.046;10.760;2024-03-23T06:16:09;2.13;;;2.10;;
63018;SDS011;49105;46.046;10.760;2024-03-23T06:18:35;2.50;;;2.42;;
63018;SDS011;49105;46.046;10.760;2024-03-23T06:21:01;2.38;;;2.38;;
63018;SDS011;49105;46.046;10.760;2024-03-23T06:23:26;4.35;;;4.07;;
63018;SDS011;49105;46.046;10.760;2024-03-23T06:25:52;10.13;;;4.53;;
63018;SDS011;49105;46.046;10.760;2024-03-23T06:28:18;3.75;;;3.55;;
63018;SDS011;49105;46.046;10.760;2024-03-23T06:30:44;3.50;;;3.33;;
63018;SDS011;49105;46.046;10.760;2024-03-23T06:33:10;3.13;;;3.03;;
63018;SDS011;49105;46.046;10.760;2024-03-23T06:35:36;2.88;;;2.78;;
63018;SDS011;49105;46.046;10.760;2024-03-23T06:38:02;2.53;;;2.42;;
63018;SDS011;49105;46.046;10.760;2024-03-23T06:40:28;4.53;;;2.85;;
63018;SDS011;49105;46.046;10.760;2024-03-23T06:42:54;2.92;;;2.83;;
63018;SDS011;49105;46.046;10.760;2024-03-23T06:45:20;2.10;;;2.10;;
63018;SDS011;49105;46.046;10.760;2024-03-23T06:47:48;3.03;;;2.85;;
63018;SDS011;49105;46.046;10.760;2024-03-23T06:50:14;2.53;;;2.53;;
63018;SDS011;49105;46.046;10.760;2024-03-23T06:52:40;3.20;;;3.10;;
63018;SDS011;49105;46.046;10.760;2024-03-23T06:55:05;2.20;;;2.20;;
63018;SDS011;49105;46.046;10.760;2024-03-23T06:57:31;3.38;;;3.17;;
63018;SDS011;49105;46.046;10.760;2024-03-23T06:59:58;3.13;;;3.03;;
63018;SDS011;49105;46.046;10.760;2024-03-23T07:02:23;2.58;;;2.47;;
63018;SDS011;49105;46.046;10.760;2024-03-23T07:04:51;2.08;;;2.05;;
63018;SDS011;49105;46.046;10.760;2024-03-23T07:07:21;2.22;;;2.22;;
63018;SDS011;49105;46.046;10.760;2024-03-23T07:09:47;2.10;;;2.10;;
63018;SDS011;49105;46.046;10.760;2024-03-23T07:12:13;2.10;;;2.10;;
63018;SDS011;49105;46.046;10.760;2024-03-23T07:14:40;1.70;;;1.70;;
63018;SDS011;49105;46.046;10.760;2024-03-23T07:17:06;2.25;;;2.25;;
63018;SDS011;49105;46.046;10.760;2024-03-23T07:19:32;2.63;;;2.53;;
63018;SDS011;49105;46.046;10.760;2024-03-23T07:21:58;2.13;;;2.13;;
63018;SDS011;49105;46.046;10.760;2024-03-23T07:24:24;2.67;;;2.58;;
63018;SDS011;49105;46.046;10.760;2024-03-23T07:26:50;2.83;;;2.67;;
63018;SDS011;49105;46.046;10.760;2024-03-23T07:29:16;2.38;;;2.38;;
63018;SDS011;49105;46.046;10.760;2024-03-23T07:31:42;2.22;;;2.22;;
63018;SDS011;49105;46.046;10.760;2024-03-23T07:34:08;2.15;;;2.15;;
63018;SDS011;49105;46.046;10.760;2024-03-23T07:36:34;3.17;;;3.08;;
63018;SDS011;49105;46.046;10.760;2024-03-23T07:39:01;2.30;;;2.30;;
63018;SDS011;49105;46.046;10.760;2024-03-23T07:41:26;2.25;;;2.25;;
63018;SDS011;49105;46.046;10.760;2024-03-23T07:43:53;2.08;;;2.00;;
63018;SDS011;49105;46.046;10.760;2024-03-23T07:46:20;1.75;;;1.75;;
63018;SDS011;49105;46.046;10.760;2024-03-23T07:48:46;2.63;;;2.53;;
63018;SDS011;49105;46.046;10.760;2024-03-23T07:51:20;2.15;;;2.13;;
63018;SDS011;49105;46.046;10.760;2024-03-23T07:53:46;2.50;;;2.40;;
63018;SDS011;49105;46.046;10.760;2024-03-23T07:56:13;2.03;;;2.03;;
63018;SDS011;49105;46.046;10.760;2024-03-23T07:58:40;2.60;;;2.50;;
63018;SDS011;49105;46.046;10.760;2024-03-23T08:01:07;3.08;;;2.67;;
63018;SDS011;49105;46.046;10.760;2024-03-23T08:03:34;2.47;;;2.28;;
63018;SDS011;49105;46.046;10.760;2024-03-23T08:06:33;1.95;;;1.95;;
63018;SDS011;49105;46.046;10.760;2024-03-23T08:08:54;2.47;;;2.40;;
63018;SDS011;49105;46.046;10.760;2024-03-23T08:11:26;3.25;;;3.08;;
63018;SDS011;49105;46.046;10.760;2024-03-23T08:13:52;1.70;;;1.70;;
63018;SDS011;49105;46.046;10.760;2024-03-23T08:16:18;1.95;;;1.95;;
63018;SDS011;49105;46.046;10.760;2024-03-23T08:18:44;2.67;;;2.53;;
63018;SDS011;49105;46.046;10.760;2024-03-23T08:21:10;2.28;;;2.17;;
63018;SDS011;49105;46.046;10.760;2024-03-23T08:23:37;3.13;;;3.03;;
63018;SDS011;49105;46.046;10.760;2024-03-23T08:26:06;4.38;;;4.13;;
63018;SDS011;49105;46.046;10.760;2024-03-23T08:28:32;1.77;;;1.77;;
63018;SDS011;49105;46.046;10.760;2024-03-23T08:31:00;1.80;;;1.80;;
63018;SDS011;49105;46.046;10.760;2024-03-23T08:33:27;2.47;;;2.35;;
63018;SDS011;49105;46.046;10.760;2024-03-23T08:35:57;2.08;;;2.08;;
63018;SDS011;49105;46.046;10.760;2024-03-23T08:38:28;1.75;;;1.75;;
63018;SDS011;49105;46.046;10.760;2024-03-23T08:43:23;2.58;;;2.45;;
63018;SDS011;49105;46.046;10.760;2024-03-23T08:45:49;2.70;;;2.60;;
63018;SDS011;49105;46.046;10.760;2024-03-23T08:48:14;2.10;;;1.98;;
63018;SDS011;49105;46.046;10.760;2024-03-23T08:50:40;1.67;;;1.67;;
63018;SDS011;49105;46.046;10.760;2024-03-23T08:53:06;1.95;;;1.70;;
63018;SDS011;49105;46.046;10.760;2024-03-23T08:55:32;2.38;;;2.28;;
63018;SDS011;49105;46.046;10.760;2024-03-23T08:57:58;2.25;;;2.15;;
63018;SDS011;49105;46.046;10.760;2024-03-23T09:00:25;2.42;;;2.33;;
63018;SDS011;49105;46.046;10.760;2024-03-23T09:02:51;2.55;;;2.45;;
63018;SDS011;49105;46.046;10.760;2024-03-23T09:05:16;1.52;;;1.52;;
63018;SDS011;49105;46.046;10.760;2024-03-23T09:07:43;1.70;;;1.70;;
63018;SDS011;49105;46.046;10.760;2024-03-23T09:10:09;1.85;;;1.83;;
63018;SDS011;49105;46.046;10.760;2024-03-23T09:12:35;1.67;;;1.67;;
63018;SDS011;49105;46.046;10.760;2024-03-23T09:15:01;1.58;;;1.58;;
63018;SDS011;49105;46.046;10.760;2024-03-23T09:17:27;2.47;;;2.38;;
63018;SDS011;49105;46.046;10.760;2024-03-23T09:19:53;2.30;;;2.20;;
63018;SDS011;49105;46.046;10.760;2024-03-23T09:22:18;2.58;;;2.42;;
63018;SDS011;49105;46.046;10.760;2024-03-23T09:24:43;2.38;;;1.85;;
63018;SDS011;49105;46.046;10.760;2024-03-23T09:27:10;2.33;;;2.20;;
63018;SDS011;49105;46.046;10.760;2024-03-23T09:29:36;2.05;;;1.95;;
63018;SDS011;49105;46.046;10.760;2024-03-23T09:32:02;1.75;;;1.75;;
63018;SDS011;49105;46.046;10.760;2024-03-23T09:34:28;1.83;;;1.80;;
63018;SDS011;49105;46.046;10.760;2024-03-23T09:36:54;1.98;;;1.98;;
63018;SDS011;49105;46.046;10.760;2024-03-23T09:39:21;1.60;;;1.60;;
63018;SDS011;49105;46.046;10.760;2024-03-23T09:41:47;2.47;;;2.38;;
63018;SDS011;49105;46.046;10.760;2024-03-23T09:44:13;1.52;;;1.52;;
63018;SDS011;49105;46.046;10.760;2024-03-23T09:46:39;1.98;;;1.88;;
63018;SDS011;49105;46.046;10.760;2024-03-23T09:49:05;2.10;;;2.10;;
63018;SDS011;49105;46.046;10.760;2024-03-23T09:51:35;2.65;;;1.90;;
63018;SDS011;49105;46.046;10.760;2024-03-23T09:54:01;2.95;;;2.85;;
63018;SDS011;49105;46.046;10.760;2024-03-23T09:56:27;2.28;;;2.17;;
63018;SDS011;49105;46.046;10.760;2024-03-23T09:58:59;2.33;;;2.22;;
63018;SDS011;49105;46.046;10.760;2024-03-23T10:01:26;2.03;;;2.03;;
63018;SDS011;49105;46.046;10.760;2024-03-23T10:03:52;2.55;;;2.45;;
63018;SDS011;49105;46.046;10.760;2024-03-23T10:06:19;2.15;;;2.05;;
63018;SDS011;49105;46.046;10.760;2024-03-23T10:08:46;2.88;;;2.78;;
63018;SDS011;49105;46.046;10.760;2024-03-23T10:11:13;2.90;;;2.80;;
63018;SDS011;49105;46.046;10.760;2024-03-23T10:13:41;2.20;;;2.10;;
63018;SDS011;49105;46.046;10.760;2024-03-23T10:16:07;4.40;;;3.45;;
63018;SDS011;49105;46.046;10.760;2024-03-23T10:18:36;2.78;;;2.67;;
63018;SDS011;49105;46.046;10.760;2024-03-23T10:23:38;2.35;;;2.25;;
63018;SDS011;49105;46.046;10.760;2024-03-23T10:26:21;7.40;;;3.65;;
63018;SDS011;49105;46.046;10.760;2024-03-23T10:28:51;2.85;;;2.63;;
63018;SDS011;49105;46.046;10.760;2024-03-23T10:31:30;3.10;;;2.95;;
63018;SDS011;49105;46.046;10.760;2024-03-23T10:33:57;2.70;;;2.50;;
63018;SDS011;49105;46.046;10.760;2024-03-23T10:36:23;2.72;;;2.63;;
63018;SDS011;49105;46.046;10.760;2024-03-23T10:38:51;3.53;;;3.22;;
63018;SDS011;49105;46.046;10.760;2024-03-23T10:41:17;3.08;;;2.88;;
63018;SDS011;49105;46.046;10.760;2024-03-23T10:43:44;3.00;;;2.90;;
63018;SDS011;49105;46.046;10.760;2024-03-23T10:46:13;2.60;;;2.50;;
63018;SDS011;49105;46.046;10.760;2024-03-23T10:48:39;7.07;;;3.53;;
63018;SDS011;49105;46.046;10.760;2024-03-23T10:51:07;3.05;;;2.83;;
63018;SDS011;49105;46.046;10.760;2024-03-23T10:53:34;3.10;;;2.90;;
63018;SDS011;49105;46.046;10.760;2024-03-23T10:56:00;2.75;;;2.65;;
63018;SDS011;49105;46.046;10.760;2024-03-23T10:58:33;1.80;;;1.80;;
63018;SDS011;49105;46.046;10.760;2024-03-23T11:01:03;3.78;;;3.45;;
63018;SDS011;49105;46.046;10.760;2024-03-23T11:05:59;3.03;;;2.85;;
63018;SDS011;49105;46.046;10.760;2024-03-23T11:08:35;2.25;;;2.15;;
63018;SDS011;49105;46.046;10.760;2024-03-23T11:11:11;4.35;;;2.13;;
63018;SDS011;49105;46.046;10.760;2024-03-23T11:13:53;2.20;;;2.20;;
63018;SDS011;49105;46.046;10.760;2024-03-23T11:22:03;3.17;;;3.08;;
63018;SDS011;49105;46.046;10.760;2024-03-23T11:24:30;2.38;;;2.35;;
63018;SDS011;49105;46.046;10.760;2024-03-23T11:26:56;3.72;;;3.42;;
63018;SDS011;49105;46.046;10.760;2024-03-23T11:29:25;2.88;;;2.67;;
63018;SDS011;49105;46.046;10.760;2024-03-23T11:31:51;2.72;;;2.53;;
63018;SDS011;49105;46.046;10.760;2024-03-23T11:34:19;2.45;;;2.35;;
63018;SDS011;49105;46.046;10.760;2024-03-23T11:36:45;3.58;;;3.38;;
63018;SDS011;49105;46.046;10.760;2024-03-23T11:39:18;5.15;;;3.47;;
63018;SDS011;49105;46.046;10.760;2024-03-23T11:44:21;2.55;;;2.38;;
63018;SDS011;49105;46.046;10.760;2024-03-23T11:46:48;2.13;;;2.03;;
63018;SDS011;49105;46.046;10.760;2024-03-23T11:49:23;3.15;;;2.60;;
63018;SDS011;49105;46.046;10.760;2024-03-23T11:51:53;2.72;;;2.63;;
63018;SDS011;49105;46.046;10.760;2024-03-23T11:54:23;2.08;;;1.98;;
63018;SDS011;49105;46.046;10.760;2024-03-23T11:56:57;1.92;;;1.83;;
63018;SDS011;49105;46.046;10.760;2024-03-23T11:59:56;2.20;;;2.10;;
63018;SDS011;49105;46.046;10.760;2024-03-23T12:02:15;2.00;;;2.00;;
63018;SDS011;49105;46.046;10.760;2024-03-23T12:04:44;2.65;;;2.55;;
63018;SDS011;49105;46.046;10.760;2024-03-23T12:07:16;3.22;;;3.03;;
63018;SDS011;49105;46.046;10.760;2024-03-23T12:10:02;3.42;;;3.17;;
63018;SDS011;49105;46.046;10.760;2024-03-23T12:12:29;1.90;;;1.90;;
63018;SDS011;49105;46.046;10.760;2024-03-23T12:15:01;2.58;;;2.47;;
63018;SDS011;49105;46.046;10.760;2024-03-23T12:17:31;2.08;;;1.98;;
63018;SDS011;49105;46.046;10.760;2024-03-23T12:19:57;2.53;;;2.42;;
63018;SDS011;49105;46.046;10.760;2024-03-23T12:22:23;2.38;;;2.17;;
63018;SDS011;49105;46.046;10.760;2024-03-23T12:24:49;2.97;;;2.88;;
63018;SDS011;49105;46.046;10.760;2024-03-23T12:27:15;2.63;;;2.42;;
63018;SDS011;49105;46.046;10.760;2024-03-23T12:29:41;2.70;;;2.50;;
63018;SDS011;49105;46.046;10.760;2024-03-23T12:32:10;2.47;;;2.38;;
63018;SDS011;49105;46.046;10.760;2024-03-23T12:34:36;3.47;;;3.28;;
63018;SDS011;49105;46.046;10.760;2024-03-23T12:37:03;2.13;;;2.03;;
63018;SDS011;49105;46.046;10.760;2024-03-23T12:39:29;4.28;;;2.65;;
63018;SDS011;49105;46.046;10.760;2024-03-23T12:41:55;3.25;;;3.15;;
63018;SDS011;49105;46.046;10.760;2024-03-23T12:44:21;2.90;;;2.70;;
63018;SDS011;49105;46.046;10.760;2024-03-23T12:46:48;6.53;;;2.80;;
63018;SDS011;49105;46.046;10.760;2024-03-23T12:49:13;4.88;;;4.47;;
63018;SDS011;49105;46.046;10.760;2024-03-23T12:51:41;4.05;;;3.85;;
63018;SDS011;49105;46.046;10.760;2024-03-23T12:54:20;2.35;;;2.28;;
63018;SDS011;49105;46.046;10.760;2024-03-23T12:56:46;3.03;;;2.88;;
63018;SDS011;49105;46.046;10.760;2024-03-23T12:59:12;1.80;;;1.80;;
63018;SDS011;49105;46.046;10.760;2024-03-23T13:01:38;2.80;;;2.70;;
63018;SDS011;49105;46.046;10.760;2024-03-23T13:04:04;3.20;;;3.05;;
63018;SDS011;49105;46.046;10.760;2024-03-23T13:06:29;4.28;;;3.85;;
63018;SDS011;49105;46.046;10.760;2024-03-23T13:09:00;3.35;;;3.05;;
63018;SDS011;49105;46.046;10.760;2024-03-23T13:11:28;2.38;;;2.28;;
63018;SDS011;49105;46.046;10.760;2024-03-23T13:13:54;2.83;;;2.72;;
63018;SDS011;49105;46.046;10.760;2024-03-23T13:16:20;3.40;;;3.10;;
63018;SDS011;49105;46.046;10.760;2024-03-23T13:18:47;3.95;;;3.67;;
63018;SDS011;49105;46.046;10.760;2024-03-23T13:21:12;2.35;;;2.25;;
63018;SDS011;49105;46.046;10.760;2024-03-23T13:23:39;2.85;;;2.75;;
63018;SDS011;49105;46.046;10.760;2024-03-23T13:26:07;2.92;;;2.83;;
63018;SDS011;49105;46.046;10.760;2024-03-23T13:28:33;3.55;;;3.35;;
63018;SDS011;49105;46.046;10.760;2024-03-23T13:30:59;3.42;;;3.13;;
63018;SDS011;49105;46.046;10.760;2024-03-23T13:33:29;2.53;;;2.28;;
63018;SDS011;49105;46.046;10.760;2024-03-23T13:35:55;8.23;;;4.07;;
63018;SDS011;49105;46.046;10.760;2024-03-23T13:38:21;2.00;;;1.90;;
63018;SDS011;49105;46.046;10.760;2024-03-23T13:40:57;3.85;;;3.55;;
63018;SDS011;49105;46.046;10.760;2024-03-23T13:43:24;2.15;;;2.15;;
63018;SDS011;49105;46.046;10.760;2024-03-23T13:45:54;3.85;;;3.03;;
63018;SDS011;49105;46.046;10.760;2024-03-23T13:48:24;2.67;;;2.58;;
63018;SDS011;49105;46.046;10.760;2024-03-23T13:51:03;7.30;;;2.75;;
63018;SDS011;49105;46.046;10.760;2024-03-23T13:53:29;2.70;;;2.60;;
63018;SDS011;49105;46.046;10.760;2024-03-23T13:55:55;2.05;;;1.98;;
63018;SDS011;49105;46.046;10.760;2024-03-23T13:58:21;1.80;;;1.80;;
63018;SDS011;49105;46.046;10.760;2024-03-23T14:00:47;2.15;;;2.08;;
63018;SDS011;49105;46.046;10.760;2024-03-23T14:03:13;2.75;;;2.65;;
63018;SDS011;49105;46.046;10.760;2024-03-23T14:05:40;3.17;;;2.33;;
63018;SDS011;49105;46.046;10.760;2024-03-23T14:08:09;2.85;;;2.75;;
63018;SDS011;49105;46.046;10.760;2024-03-23T14:10:36;2.58;;;2.47;;
63018;SDS011;49105;46.046;10.760;2024-03-23T14:13:05;3.42;;;3.22;;
63018;SDS011;49105;46.046;10.760;2024-03-23T14:15:31;2.45;;;2.15;;
63018;SDS011;49105;46.046;10.760;2024-03-23T14:17:57;3.67;;;3.50;;
63018;SDS011;49105;46.046;10.760;2024-03-23T14:20:22;2.50;;;2.50;;
63018;SDS011;49105;46.046;10.760;2024-03-23T14:22:48;3.05;;;2.95;;
63018;SDS011;49105;46.046;10.760;2024-03-23T14:25:14;3.78;;;3.47;;
63018;SDS011;49105;46.046;10.760;2024-03-23T14:27:41;3.50;;;3.30;;
63018;SDS011;49105;46.046;10.760;2024-03-23T14:30:09;3.67;;;3.40;;
63018;SDS011;49105;46.046;10.760;2024-03-23T14:32:37;4.43;;;4.32;;
63018;SDS011;49105;46.046;10.760;2024-03-23T14:35:03;6.45;;;6.20;;
63018;SDS011;49105;46.046;10.760;2024-03-23T14:37:29;7.13;;;6.93;;
63018;SDS011;49105;46.046;10.760;2024-03-23T14:39:58;8.07;;;7.78;;
63018;SDS011;49105;46.046;10.760;2024-03-23T14:42:24;8.45;;;8.15;;
63018;SDS011;49105;46.046;10.760;2024-03-23T14:44:50;6.30;;;6.10;;
63018;SDS011;49105;46.046;10.760;2024-03-23T14:47:16;5.57;;;5.38;;
63018;SDS011;49105;46.046;10.760;2024-03-23T14:49:46;4.25;;;4.15;;
63018;SDS011;49105;46.046;10.760;2024-03-23T14:52:19;4.03;;;3.92;;
63018;SDS011;49105;46.046;10.760;2024-03-23T14:54:44;4.55;;;4.45;;
63018;SDS011;49105;46.046;10.760;2024-03-23T14:57:11;3.90;;;3.80;;
63018;SDS011;49105;46.046;10.760;2024-03-23T14:59:37;4.05;;;3.95;;
63018;SDS011;49105;46.046;10.760;2024-03-23T15:02:03;4.63;;;4.43;;
63018;SDS011;49105;46.046;10.760;2024-03-23T15:04:30;3.53;;;3.42;;
63018;SDS011;49105;46.046;10.760;2024-03-23T15:06:56;3.50;;;3.40;;
63018;SDS011;49105;46.046;10.760;2024-03-23T15:09:23;2.50;;;2.50;;
63018;SDS011;49105;46.046;10.760;2024-03-23T15:11:49;2.50;;;2.40;;
63018;SDS011;49105;46.046;10.760;2024-03-23T15:14:14;2.38;;;2.38;;
63018;SDS011;49105;46.046;10.760;2024-03-23T15:16:40;2.65;;;2.63;;
63018;SDS011;49105;46.046;10.760;2024-03-23T15:19:07;3.58;;;3.38;;
63018;SDS011;49105;46.046;10.760;2024-03-23T15:21:33;2.40;;;2.40;;
63018;SDS011;49105;46.046;10.760;2024-03-23T15:24:00;3.03;;;2.92;;
63018;SDS011;49105;46.046;10.760;2024-03-23T15:26:26;3.00;;;2.90;;
63018;SDS011;49105;46.046;10.760;2024-03-23T15:28:52;2.92;;;2.83;;
63018;SDS011;49105;46.046;10.760;2024-03-23T15:31:23;3.00;;;2.90;;
63018;SDS011;49105;46.046;10.760;2024-03-23T15:33:49;2.88;;;2.78;;
63018;SDS011;49105;46.046;10.760;2024-03-23T15:36:15;2.30;;;2.30;;
63018;SDS011;49105;46.046;10.760;2024-03-23T15:38:41;2.60;;;2.53;;
63018;SDS011;49105;46.046;10.760;2024-03-23T15:41:08;2.40;;;2.30;;
63018;SDS011;49105;46.046;10.760;2024-03-23T15:43:34;2.50;;;2.50;;